sensor_id;sensor_type;location;lat;lon;timestamp;P1;durP1;ratioP1;P2;durP2;ratioP2
12707;SDS011;6418;50.824;4.718;2023-08-31T00:02:25;9.83;;;4.90;;
12707;SDS011;6418;50.824;4.718;2023-08-31T00:04:52;9.77;;;5.03;;
12707;SDS011;6418;50.824;4.718;2023-08-31T00:07:20;8.60;;;4.90;;
12707;SDS011;6418;50.824;4.718;2023-08-31T00:09:47;9.20;;;4.90;;
12707;SDS011;6418;50.824;4.718;2023-08-31T00:12:16;10.73;;;5.37;;
12707;SDS011;6418;50.824;4.718;2023-08-31T00:14:43;11.07;;;5.20;;
12707;SDS011;6418;50.824;4.718;2023-08-31T00:17:10;11.97;;;5.37;;
12707;SDS011;6418;50.824;4.718;2023-08-31T00:19:37;9.37;;;5.57;;
12707;SDS011;6418;50.824;4.718;2023-08-31T00:22:04;11.07;;;5.50;;
12707;SDS011;6418;50.824;4.718;2023-08-31T00:24:30;11.43;;;5.63;;
12707;SDS011;6418;50.824;4.718;2023-08-31T00:27:01;11.13;;;6.07;;
12707;SDS011;6418;50.824;4.718;2023-08-31T00:29:30;11.17;;;5.77;;
12707;SDS011;6418;50.824;4.718;2023-08-31T00:31:57;13.27;;;6.00;;
12707;SDS011;6418;50.824;4.718;2023-08-31T00:34:23;13.20;;;6.30;;
12707;SDS011;6418;50.824;4.718;2023-08-31T00:36:50;12.70;;;6.40;;
12707;SDS011;6418;50.824;4.718;2023-08-31T00:39:17;12.90;;;6.50;;
12707;SDS011;6418;50.824;4.718;2023-08-31T00:41:46;10.27;;;5.90;;
12707;SDS011;6418;50.824;4.718;2023-08-31T00:44:13;12.83;;;6.23;;
12707;SDS011;6418;50.824;4.718;2023-08-31T00:46:41;12.63;;;6.63;;
12707;SDS011;6418;50.824;4.718;2023-08-31T00:49:08;12.00;;;6.70;;
12707;SDS011;6418;50.824;4.718;2023-08-31T00:51:36;13.30;;;7.03;;
12707;SDS011;6418;50.824;4.718;2023-08-31T00:54:03;13.00;;;6.97;;
12707;SDS011;6418;50.824;4.718;2023-08-31T00:56:31;13.07;;;7.20;;
12707;SDS011;6418;50.824;4.718;2023-08-31T00:58:58;14.00;;;7.37;;
12707;SDS011;6418;50.824;4.718;2023-08-31T01:01:26;12.43;;;7.20;;
12707;SDS011;6418;50.824;4.718;2023-08-31T01:04:06;14.27;;;7.63;;
12707;SDS011;6418;50.824;4.718;2023-08-31T01:06:47;15.97;;;7.90;;
12707;SDS011;6418;50.824;4.718;2023-08-31T01:09:29;16.53;;;8.20;;
12707;SDS011;6418;50.824;4.718;2023-08-31T01:12:03;13.80;;;8.57;;
12707;SDS011;6418;50.824;4.718;2023-08-31T01:14:38;15.00;;;8.90;;
12707;SDS011;6418;50.824;4.718;2023-08-31T01:17:08;18.37;;;8.53;;
12707;SDS011;6418;50.824;4.718;2023-08-31T01:19:47;17.77;;;8.67;;
12707;SDS011;6418;50.824;4.718;2023-08-31T01:22:18;17.20;;;9.57;;
12707;SDS011;6418;50.824;4.718;2023-08-31T01:24:52;16.47;;;9.33;;
12707;SDS011;6418;50.824;4.718;2023-08-31T01:27:20;18.50;;;9.77;;
12707;SDS011;6418;50.824;4.718;2023-08-31T01:29:47;14.63;;;9.13;;
12707;SDS011;6418;50.824;4.718;2023-08-31T01:32:14;18.27;;;10.10;;
12707;SDS011;6418;50.824;4.718;2023-08-31T01:34:41;16.93;;;9.60;;
12707;SDS011;6418;50.824;4.718;2023-08-31T01:37:10;16.57;;;9.83;;
12707;SDS011;6418;50.824;4.718;2023-08-31T01:39:41;17.43;;;10.30;;
12707;SDS011;6418;50.824;4.718;2023-08-31T01:42:15;19.37;;;10.57;;
12707;SDS011;6418;50.824;4.718;2023-08-31T01:44:43;16.90;;;10.17;;
12707;SDS011;6418;50.824;4.718;2023-08-31T01:47:14;17.60;;;10.60;;
12707;SDS011;6418;50.824;4.718;2023-08-31T01:49:44;17.50;;;10.73;;
12707;SDS011;6418;50.824;4.718;2023-08-31T01:52:11;18.33;;;10.90;;
12707;SDS011;6418;50.824;4.718;2023-08-31T01:54:38;19.47;;;11.23;;
12707;SDS011;6418;50.824;4.718;2023-08-31T01:57:05;16.93;;;10.73;;
12707;SDS011;6418;50.824;4.718;2023-08-31T01:59:34;18.30;;;10.93;;
12707;SDS011;6418;50.824;4.718;2023-08-31T02:02:01;19.03;;;10.93;;
12707;SDS011;6418;50.824;4.718;2023-08-31T02:04:29;17.47;;;11.40;;
12707;SDS011;6418;50.824;4.718;2023-08-31T02:06:56;20.83;;;10.97;;
12707;SDS011;6418;50.824;4.718;2023-08-31T02:09:23;19.33;;;11.43;;
12707;SDS011;6418;50.824;4.718;2023-08-31T02:11:50;20.40;;;10.87;;
12707;SDS011;6418;50.824;4.718;2023-08-31T02:14:17;18.93;;;10.70;;
12707;SDS011;6418;50.824;4.718;2023-08-31T02:16:45;17.83;;;11.00;;
12707;SDS011;6418;50.824;4.718;2023-08-31T02:19:12;17.43;;;10.87;;
12707;SDS011;6418;50.824;4.718;2023-08-31T02:21:39;20.70;;;11.23;;
12707;SDS011;6418;50.824;4.718;2023-08-31T02:24:06;19.73;;;10.77;;
12707;SDS011;6418;50.824;4.718;2023-08-31T02:26:34;19.40;;;11.30;;
12707;SDS011;6418;50.824;4.718;2023-08-31T02:29:02;18.50;;;11.60;;
12707;SDS011;6418;50.824;4.718;2023-08-31T02:31:29;20.10;;;10.70;;
12707;SDS011;6418;50.824;4.718;2023-08-31T02:33:57;20.10;;;11.20;;
12707;SDS011;6418;50.824;4.718;2023-08-31T02:36:24;20.63;;;11.10;;
12707;SDS011;6418;50.824;4.718;2023-08-31T02:38:51;22.83;;;11.50;;
12707;SDS011;6418;50.824;4.718;2023-08-31T02:41:18;21.13;;;11.40;;
12707;SDS011;6418;50.824;4.718;2023-08-31T02:43:45;21.10;;;11.13;;
12707;SDS011;6418;50.824;4.718;2023-08-31T02:46:12;22.63;;;11.63;;
12707;SDS011;6418;50.824;4.718;2023-08-31T02:48:39;22.93;;;11.47;;
12707;SDS011;6418;50.824;4.718;2023-08-31T02:51:07;19.27;;;10.43;;
12707;SDS011;6418;50.824;4.718;2023-08-31T02:53:34;19.37;;;11.30;;
12707;SDS011;6418;50.824;4.718;2023-08-31T02:56:01;19.93;;;11.17;;
12707;SDS011;6418;50.824;4.718;2023-08-31T02:58:28;21.10;;;10.93;;
12707;SDS011;6418;50.824;4.718;2023-08-31T03:00:55;19.20;;;11.03;;
12707;SDS011;6418;50.824;4.718;2023-08-31T03:03:33;20.37;;;11.17;;
12707;SDS011;6418;50.824;4.718;2023-08-31T03:06:00;21.93;;;11.20;;
12707;SDS011;6418;50.824;4.718;2023-08-31T03:08:28;21.20;;;11.30;;
12707;SDS011;6418;50.824;4.718;2023-08-31T03:10:56;22.93;;;12.40;;
12707;SDS011;6418;50.824;4.718;2023-08-31T03:13:24;19.90;;;11.50;;
12707;SDS011;6418;50.824;4.718;2023-08-31T03:15:51;23.00;;;11.57;;
12707;SDS011;6418;50.824;4.718;2023-08-31T03:18:18;22.10;;;11.77;;
12707;SDS011;6418;50.824;4.718;2023-08-31T03:20:45;25.40;;;11.63;;
12707;SDS011;6418;50.824;4.718;2023-08-31T03:23:12;22.00;;;10.90;;
12707;SDS011;6418;50.824;4.718;2023-08-31T03:25:40;20.80;;;11.23;;
12707;SDS011;6418;50.824;4.718;2023-08-31T03:28:07;22.90;;;11.20;;
12707;SDS011;6418;50.824;4.718;2023-08-31T03:30:34;18.33;;;11.00;;
12707;SDS011;6418;50.824;4.718;2023-08-31T03:33:02;22.43;;;11.53;;
12707;SDS011;6418;50.824;4.718;2023-08-31T03:35:31;22.17;;;11.30;;
12707;SDS011;6418;50.824;4.718;2023-08-31T03:37:58;20.37;;;10.37;;
12707;SDS011;6418;50.824;4.718;2023-08-31T03:40:25;20.60;;;10.47;;
12707;SDS011;6418;50.824;4.718;2023-08-31T03:42:54;21.40;;;10.87;;
12707;SDS011;6418;50.824;4.718;2023-08-31T03:45:21;20.47;;;11.07;;
12707;SDS011;6418;50.824;4.718;2023-08-31T03:47:48;19.57;;;10.83;;
12707;SDS011;6418;50.824;4.718;2023-08-31T03:50:14;23.03;;;9.80;;
12707;SDS011;6418;50.824;4.718;2023-08-31T03:52:41;19.07;;;11.20;;
12707;SDS011;6418;50.824;4.718;2023-08-31T03:55:09;24.27;;;10.77;;
12707;SDS011;6418;50.824;4.718;2023-08-31T03:57:36;22.80;;;10.33;;
12707;SDS011;6418;50.824;4.718;2023-08-31T04:00:05;23.00;;;11.03;;
12707;SDS011;6418;50.824;4.718;2023-08-31T04:02:37;20.27;;;10.00;;
12707;SDS011;6418;50.824;4.718;2023-08-31T04:05:05;18.97;;;9.50;;
12707;SDS011;6418;50.824;4.718;2023-08-31T04:07:34;21.87;;;10.20;;
12707;SDS011;6418;50.824;4.718;2023-08-31T04:10:01;21.30;;;10.17;;
12707;SDS011;6418;50.824;4.718;2023-08-31T04:12:28;19.73;;;9.80;;
12707;SDS011;6418;50.824;4.718;2023-08-31T04:14:56;20.27;;;10.27;;
12707;SDS011;6418;50.824;4.718;2023-08-31T04:17:24;20.67;;;10.50;;
12707;SDS011;6418;50.824;4.718;2023-08-31T04:19:51;21.17;;;10.60;;
12707;SDS011;6418;50.824;4.718;2023-08-31T04:22:18;19.77;;;9.97;;
12707;SDS011;6418;50.824;4.718;2023-08-31T04:24:45;18.57;;;9.67;;
12707;SDS011;6418;50.824;4.718;2023-08-31T04:27:12;16.33;;;9.50;;
12707;SDS011;6418;50.824;4.718;2023-08-31T04:29:39;16.40;;;9.33;;
12707;SDS011;6418;50.824;4.718;2023-08-31T04:32:06;18.37;;;9.43;;
12707;SDS011;6418;50.824;4.718;2023-08-31T04:34:34;20.87;;;9.30;;
12707;SDS011;6418;50.824;4.718;2023-08-31T04:37:01;21.50;;;9.20;;
12707;SDS011;6418;50.824;4.718;2023-08-31T04:39:28;20.43;;;9.13;;
12707;SDS011;6418;50.824;4.718;2023-08-31T04:41:55;17.43;;;8.93;;
12707;SDS011;6418;50.824;4.718;2023-08-31T04:44:22;18.30;;;8.77;;
12707;SDS011;6418;50.824;4.718;2023-08-31T04:46:49;19.23;;;8.63;;
12707;SDS011;6418;50.824;4.718;2023-08-31T04:49:16;17.20;;;8.67;;
12707;SDS011;6418;50.824;4.718;2023-08-31T04:51:44;15.67;;;8.60;;
12707;SDS011;6418;50.824;4.718;2023-08-31T04:54:12;17.70;;;8.83;;
12707;SDS011;6418;50.824;4.718;2023-08-31T04:56:38;21.47;;;9.07;;
12707;SDS011;6418;50.824;4.718;2023-08-31T04:59:05;21.27;;;8.80;;
12707;SDS011;6418;50.824;4.718;2023-08-31T05:01:32;16.93;;;9.30;;
12707;SDS011;6418;50.824;4.718;2023-08-31T05:03:59;18.30;;;9.20;;
12707;SDS011;6418;50.824;4.718;2023-08-31T05:06:27;16.83;;;9.17;;
12707;SDS011;6418;50.824;4.718;2023-08-31T05:08:55;17.23;;;8.40;;
12707;SDS011;6418;50.824;4.718;2023-08-31T05:11:22;15.57;;;8.90;;
12707;SDS011;6418;50.824;4.718;2023-08-31T05:13:49;17.63;;;8.90;;
12707;SDS011;6418;50.824;4.718;2023-08-31T05:16:16;17.50;;;9.10;;
12707;SDS011;6418;50.824;4.718;2023-08-31T05:18:43;20.83;;;9.93;;
12707;SDS011;6418;50.824;4.718;2023-08-31T05:21:10;20.93;;;9.57;;
12707;SDS011;6418;50.824;4.718;2023-08-31T05:23:37;19.43;;;9.23;;
12707;SDS011;6418;50.824;4.718;2023-08-31T05:26:05;18.33;;;8.97;;
12707;SDS011;6418;50.824;4.718;2023-08-31T05:28:33;18.03;;;9.43;;
12707;SDS011;6418;50.824;4.718;2023-08-31T05:31:00;20.80;;;8.70;;
12707;SDS011;6418;50.824;4.718;2023-08-31T05:33:28;19.77;;;9.17;;
12707;SDS011;6418;50.824;4.718;2023-08-31T05:36:00;21.47;;;9.57;;
12707;SDS011;6418;50.824;4.718;2023-08-31T05:38:28;20.40;;;9.30;;
12707;SDS011;6418;50.824;4.718;2023-08-31T05:41:02;17.60;;;9.40;;
12707;SDS011;6418;50.824;4.718;2023-08-31T05:43:32;18.47;;;9.67;;
12707;SDS011;6418;50.824;4.718;2023-08-31T05:46:00;21.30;;;10.37;;
12707;SDS011;6418;50.824;4.718;2023-08-31T05:48:27;19.03;;;9.70;;
12707;SDS011;6418;50.824;4.718;2023-08-31T05:50:54;18.90;;;9.67;;
12707;SDS011;6418;50.824;4.718;2023-08-31T05:53:21;18.70;;;9.40;;
12707;SDS011;6418;50.824;4.718;2023-08-31T05:55:48;18.60;;;9.20;;
12707;SDS011;6418;50.824;4.718;2023-08-31T05:58:17;19.20;;;9.80;;
12707;SDS011;6418;50.824;4.718;2023-08-31T06:00:44;16.83;;;9.90;;
12707;SDS011;6418;50.824;4.718;2023-08-31T06:03:11;24.13;;;10.27;;
12707;SDS011;6418;50.824;4.718;2023-08-31T06:05:38;18.97;;;9.47;;
12707;SDS011;6418;50.824;4.718;2023-08-31T06:08:05;19.77;;;10.40;;
12707;SDS011;6418;50.824;4.718;2023-08-31T06:10:32;22.23;;;10.23;;
12707;SDS011;6418;50.824;4.718;2023-08-31T06:12:59;19.90;;;10.13;;
12707;SDS011;6418;50.824;4.718;2023-08-31T06:15:27;22.20;;;10.10;;
12707;SDS011;6418;50.824;4.718;2023-08-31T06:17:54;18.70;;;10.07;;
12707;SDS011;6418;50.824;4.718;2023-08-31T06:20:21;18.50;;;9.93;;
12707;SDS011;6418;50.824;4.718;2023-08-31T06:22:48;18.40;;;9.93;;
12707;SDS011;6418;50.824;4.718;2023-08-31T06:25:15;20.90;;;10.13;;
12707;SDS011;6418;50.824;4.718;2023-08-31T06:27:43;22.73;;;9.77;;
12707;SDS011;6418;50.824;4.718;2023-08-31T06:30:11;21.17;;;10.13;;
12707;SDS011;6418;50.824;4.718;2023-08-31T06:32:43;20.37;;;10.23;;
12707;SDS011;6418;50.824;4.718;2023-08-31T06:35:10;20.43;;;10.10;;
12707;SDS011;6418;50.824;4.718;2023-08-31T06:37:38;25.17;;;10.93;;
12707;SDS011;6418;50.824;4.718;2023-08-31T06:40:05;21.20;;;9.83;;
12707;SDS011;6418;50.824;4.718;2023-08-31T06:42:34;21.70;;;9.83;;
12707;SDS011;6418;50.824;4.718;2023-08-31T06:45:01;19.27;;;9.73;;
12707;SDS011;6418;50.824;4.718;2023-08-31T06:47:28;19.73;;;9.73;;
12707;SDS011;6418;50.824;4.718;2023-08-31T06:49:57;22.37;;;9.83;;
12707;SDS011;6418;50.824;4.718;2023-08-31T06:52:24;21.73;;;9.87;;
12707;SDS011;6418;50.824;4.718;2023-08-31T06:54:51;22.37;;;10.17;;
12707;SDS011;6418;50.824;4.718;2023-08-31T06:57:20;20.40;;;10.23;;
12707;SDS011;6418;50.824;4.718;2023-08-31T06:59:47;26.87;;;11.10;;
12707;SDS011;6418;50.824;4.718;2023-08-31T07:02:14;22.73;;;10.37;;
12707;SDS011;6418;50.824;4.718;2023-08-31T07:04:41;23.10;;;10.40;;
12707;SDS011;6418;50.824;4.718;2023-08-31T07:07:10;22.93;;;10.83;;
12707;SDS011;6418;50.824;4.718;2023-08-31T07:09:39;22.40;;;10.07;;
12707;SDS011;6418;50.824;4.718;2023-08-31T07:12:06;21.47;;;10.37;;
12707;SDS011;6418;50.824;4.718;2023-08-31T07:14:33;21.57;;;10.50;;
12707;SDS011;6418;50.824;4.718;2023-08-31T07:17:00;23.97;;;10.47;;
12707;SDS011;6418;50.824;4.718;2023-08-31T07:19:27;27.77;;;10.57;;
12707;SDS011;6418;50.824;4.718;2023-08-31T07:21:54;20.17;;;9.67;;
12707;SDS011;6418;50.824;4.718;2023-08-31T07:24:22;24.03;;;10.27;;
12707;SDS011;6418;50.824;4.718;2023-08-31T07:26:49;23.43;;;10.37;;
12707;SDS011;6418;50.824;4.718;2023-08-31T07:29:16;25.77;;;10.47;;
12707;SDS011;6418;50.824;4.718;2023-08-31T07:31:43;23.43;;;10.17;;
12707;SDS011;6418;50.824;4.718;2023-08-31T07:34:10;25.57;;;10.23;;
12707;SDS011;6418;50.824;4.718;2023-08-31T07:36:37;21.50;;;9.57;;
12707;SDS011;6418;50.824;4.718;2023-08-31T07:39:04;24.30;;;9.70;;
12707;SDS011;6418;50.824;4.718;2023-08-31T07:41:33;19.03;;;9.57;;
12707;SDS011;6418;50.824;4.718;2023-08-31T07:44:00;22.13;;;9.87;;
12707;SDS011;6418;50.824;4.718;2023-08-31T07:46:27;23.33;;;9.97;;
12707;SDS011;6418;50.824;4.718;2023-08-31T07:48:54;22.03;;;10.20;;
12707;SDS011;6418;50.824;4.718;2023-08-31T07:51:21;19.17;;;9.47;;
12707;SDS011;6418;50.824;4.718;2023-08-31T07:53:50;20.03;;;10.07;;
12707;SDS011;6418;50.824;4.718;2023-08-31T07:56:17;22.67;;;10.20;;
12707;SDS011;6418;50.824;4.718;2023-08-31T07:58:46;21.70;;;9.33;;
12707;SDS011;6418;50.824;4.718;2023-08-31T08:01:13;25.60;;;9.90;;
12707;SDS011;6418;50.824;4.718;2023-08-31T08:03:40;21.07;;;9.73;;
12707;SDS011;6418;50.824;4.718;2023-08-31T08:06:07;19.67;;;9.23;;
12707;SDS011;6418;50.824;4.718;2023-08-31T08:08:33;18.60;;;9.07;;
12707;SDS011;6418;50.824;4.718;2023-08-31T08:11:00;17.83;;;8.77;;
12707;SDS011;6418;50.824;4.718;2023-08-31T08:13:28;19.87;;;8.33;;
12707;SDS011;6418;50.824;4.718;2023-08-31T08:15:57;17.43;;;9.10;;
12707;SDS011;6418;50.824;4.718;2023-08-31T08:18:24;23.67;;;9.67;;
12707;SDS011;6418;50.824;4.718;2023-08-31T08:20:51;20.70;;;8.77;;
12707;SDS011;6418;50.824;4.718;2023-08-31T08:23:18;21.87;;;9.03;;
12707;SDS011;6418;50.824;4.718;2023-08-31T08:25:47;15.87;;;8.20;;
12707;SDS011;6418;50.824;4.718;2023-08-31T08:28:13;19.20;;;8.77;;
12707;SDS011;6418;50.824;4.718;2023-08-31T08:30:40;20.33;;;8.17;;
12707;SDS011;6418;50.824;4.718;2023-08-31T08:33:09;18.53;;;8.33;;
12707;SDS011;6418;50.824;4.718;2023-08-31T08:35:37;15.97;;;7.90;;
12707;SDS011;6418;50.824;4.718;2023-08-31T08:38:04;20.57;;;8.70;;
12707;SDS011;6418;50.824;4.718;2023-08-31T08:40:31;21.20;;;7.93;;
12707;SDS011;6418;50.824;4.718;2023-08-31T08:42:58;22.53;;;8.00;;
12707;SDS011;6418;50.824;4.718;2023-08-31T08:45:28;20.90;;;8.03;;
12707;SDS011;6418;50.824;4.718;2023-08-31T08:48:02;21.90;;;8.67;;
12707;SDS011;6418;50.824;4.718;2023-08-31T08:50:33;20.17;;;8.00;;
12707;SDS011;6418;50.824;4.718;2023-08-31T08:53:00;18.93;;;7.77;;
12707;SDS011;6418;50.824;4.718;2023-08-31T08:55:28;19.70;;;8.33;;
12707;SDS011;6418;50.824;4.718;2023-08-31T08:57:55;21.03;;;7.77;;
12707;SDS011;6418;50.824;4.718;2023-08-31T09:00:22;20.37;;;8.10;;
12707;SDS011;6418;50.824;4.718;2023-08-31T09:02:49;18.33;;;7.90;;
12707;SDS011;6418;50.824;4.718;2023-08-31T09:05:16;19.30;;;7.40;;
12707;SDS011;6418;50.824;4.718;2023-08-31T09:08:01;16.03;;;7.10;;
12707;SDS011;6418;50.824;4.718;2023-08-31T09:10:35;19.63;;;7.60;;
12707;SDS011;6418;50.824;4.718;2023-08-31T09:13:06;16.37;;;7.30;;
12707;SDS011;6418;50.824;4.718;2023-08-31T09:15:41;17.70;;;7.70;;
12707;SDS011;6418;50.824;4.718;2023-08-31T09:18:22;16.73;;;7.53;;
12707;SDS011;6418;50.824;4.718;2023-08-31T09:20:50;18.83;;;7.20;;
12707;SDS011;6418;50.824;4.718;2023-08-31T09:23:19;16.90;;;6.70;;
12707;SDS011;6418;50.824;4.718;2023-08-31T09:25:47;17.23;;;6.13;;
12707;SDS011;6418;50.824;4.718;2023-08-31T09:28:15;16.07;;;6.50;;
12707;SDS011;6418;50.824;4.718;2023-08-31T09:30:43;13.00;;;5.87;;
12707;SDS011;6418;50.824;4.718;2023-08-31T09:33:13;15.37;;;6.20;;
12707;SDS011;6418;50.824;4.718;2023-08-31T09:35:46;15.10;;;5.80;;
12707;SDS011;6418;50.824;4.718;2023-08-31T09:38:15;14.87;;;5.70;;
12707;SDS011;6418;50.824;4.718;2023-08-31T09:40:44;15.00;;;5.30;;
12707;SDS011;6418;50.824;4.718;2023-08-31T09:43:11;15.97;;;6.33;;
12707;SDS011;6418;50.824;4.718;2023-08-31T09:45:38;16.37;;;5.87;;
12707;SDS011;6418;50.824;4.718;2023-08-31T09:48:06;14.77;;;5.83;;
12707;SDS011;6418;50.824;4.718;2023-08-31T09:50:33;13.40;;;5.77;;
12707;SDS011;6418;50.824;4.718;2023-08-31T09:53:01;14.63;;;6.00;;
12707;SDS011;6418;50.824;4.718;2023-08-31T09:55:30;15.70;;;5.67;;
12707;SDS011;6418;50.824;4.718;2023-08-31T09:57:59;11.53;;;5.50;;
12707;SDS011;6418;50.824;4.718;2023-08-31T10:00:29;12.50;;;5.60;;
12707;SDS011;6418;50.824;4.718;2023-08-31T10:02:58;14.40;;;5.60;;
12707;SDS011;6418;50.824;4.718;2023-08-31T10:05:28;13.20;;;5.80;;
12707;SDS011;6418;50.824;4.718;2023-08-31T10:07:56;12.57;;;5.77;;
12707;SDS011;6418;50.824;4.718;2023-08-31T10:10:23;15.70;;;6.20;;
12707;SDS011;6418;50.824;4.718;2023-08-31T10:12:51;14.43;;;5.87;;
12707;SDS011;6418;50.824;4.718;2023-08-31T10:15:20;12.87;;;5.40;;
12707;SDS011;6418;50.824;4.718;2023-08-31T10:17:47;12.77;;;5.63;;
12707;SDS011;6418;50.824;4.718;2023-08-31T10:20:15;12.67;;;5.13;;
12707;SDS011;6418;50.824;4.718;2023-08-31T10:22:43;12.00;;;5.40;;
12707;SDS011;6418;50.824;4.718;2023-08-31T10:25:10;10.97;;;4.93;;
12707;SDS011;6418;50.824;4.718;2023-08-31T10:27:38;14.37;;;4.73;;
12707;SDS011;6418;50.824;4.718;2023-08-31T10:30:26;14.47;;;5.10;;
12707;SDS011;6418;50.824;4.718;2023-08-31T10:35:49;11.43;;;4.67;;
12707;SDS011;6418;50.824;4.718;2023-08-31T10:38:23;10.90;;;4.93;;
12707;SDS011;6418;50.824;4.718;2023-08-31T10:43:47;11.53;;;4.90;;
12707;SDS011;6418;50.824;4.718;2023-08-31T10:49:12;10.20;;;4.37;;
12707;SDS011;6418;50.824;4.718;2023-08-31T10:51:41;11.93;;;4.30;;
12707;SDS011;6418;50.824;4.718;2023-08-31T10:54:09;12.40;;;4.40;;
12707;SDS011;6418;50.824;4.718;2023-08-31T10:59:43;9.60;;;4.50;;
12707;SDS011;6418;50.824;4.718;2023-08-31T11:02:12;10.83;;;4.47;;
12707;SDS011;6418;50.824;4.718;2023-08-31T11:04:54;11.10;;;4.67;;
12707;SDS011;6418;50.824;4.718;2023-08-31T11:07:26;11.30;;;4.20;;
12707;SDS011;6418;50.824;4.718;2023-08-31T11:10:05;11.70;;;4.50;;
12707;SDS011;6418;50.824;4.718;2023-08-31T11:12:37;9.97;;;4.30;;
12707;SDS011;6418;50.824;4.718;2023-08-31T11:15:05;10.50;;;4.30;;
12707;SDS011;6418;50.824;4.718;2023-08-31T11:17:36;12.80;;;4.50;;
12707;SDS011;6418;50.824;4.718;2023-08-31T11:20:05;12.87;;;4.47;;
12707;SDS011;6418;50.824;4.718;2023-08-31T11:22:34;11.23;;;4.70;;
12707;SDS011;6418;50.824;4.718;2023-08-31T11:25:04;10.80;;;4.43;;
12707;SDS011;6418;50.824;4.718;2023-08-31T11:27:32;10.30;;;4.30;;
12707;SDS011;6418;50.824;4.718;2023-08-31T11:29:59;13.63;;;4.87;;
12707;SDS011;6418;50.824;4.718;2023-08-31T11:32:26;9.83;;;4.50;;
12707;SDS011;6418;50.824;4.718;2023-08-31T11:34:54;11.23;;;4.63;;
12707;SDS011;6418;50.824;4.718;2023-08-31T11:37:21;16.47;;;4.90;;
12707;SDS011;6418;50.824;4.718;2023-08-31T11:39:49;14.60;;;4.80;;
12707;SDS011;6418;50.824;4.718;2023-08-31T11:42:16;9.63;;;4.40;;
12707;SDS011;6418;50.824;4.718;2023-08-31T11:44:45;17.23;;;5.10;;
12707;SDS011;6418;50.824;4.718;2023-08-31T11:47:13;12.73;;;4.60;;
12707;SDS011;6418;50.824;4.718;2023-08-31T11:49:40;11.47;;;4.50;;
12707;SDS011;6418;50.824;4.718;2023-08-31T11:52:10;10.30;;;4.35;;
12707;SDS011;6418;50.824;4.718;2023-08-31T11:54:38;10.53;;;4.53;;
12707;SDS011;6418;50.824;4.718;2023-08-31T11:57:06;14.97;;;4.73;;
12707;SDS011;6418;50.824;4.718;2023-08-31T11:59:35;13.40;;;4.80;;
12707;SDS011;6418;50.824;4.718;2023-08-31T12:02:05;10.80;;;4.60;;
12707;SDS011;6418;50.824;4.718;2023-08-31T12:04:33;12.87;;;4.67;;
12707;SDS011;6418;50.824;4.718;2023-08-31T12:07:08;11.27;;;4.38;;
12707;SDS011;6418;50.824;4.718;2023-08-31T12:09:36;13.13;;;4.25;;
12707;SDS011;6418;50.824;4.718;2023-08-31T12:12:03;11.88;;;4.68;;
12707;SDS011;6418;50.824;4.718;2023-08-31T12:14:30;12.75;;;4.45;;
12707;SDS011;6418;50.824;4.718;2023-08-31T12:17:01;11.00;;;4.28;;
12707;SDS011;6418;50.824;4.718;2023-08-31T12:19:29;13.15;;;4.55;;
12707;SDS011;6418;50.824;4.718;2023-08-31T12:21:57;12.73;;;4.30;;
12707;SDS011;6418;50.824;4.718;2023-08-31T12:24:24;12.40;;;4.47;;
12707;SDS011;6418;50.824;4.718;2023-08-31T12:26:53;9.73;;;3.90;;
12707;SDS011;6418;50.824;4.718;2023-08-31T12:29:20;9.07;;;3.90;;
12707;SDS011;6418;50.824;4.718;2023-08-31T12:31:47;9.27;;;4.00;;
12707;SDS011;6418;50.824;4.718;2023-08-31T12:34:15;10.63;;;4.03;;
12707;SDS011;6418;50.824;4.718;2023-08-31T12:36:42;10.83;;;4.07;;
12707;SDS011;6418;50.824;4.718;2023-08-31T12:39:09;11.45;;;4.03;;
12707;SDS011;6418;50.824;4.718;2023-08-31T12:41:37;11.52;;;4.18;;
12707;SDS011;6418;50.824;4.718;2023-08-31T12:44:06;12.43;;;4.10;;
12707;SDS011;6418;50.824;4.718;2023-08-31T12:46:33;8.87;;;4.10;;
12707;SDS011;6418;50.824;4.718;2023-08-31T12:49:00;9.80;;;3.80;;
12707;SDS011;6418;50.824;4.718;2023-08-31T12:51:28;9.05;;;3.85;;
12707;SDS011;6418;50.824;4.718;2023-08-31T12:53:56;9.25;;;3.92;;
12707;SDS011;6418;50.824;4.718;2023-08-31T12:56:24;11.17;;;3.90;;
12707;SDS011;6418;50.824;4.718;2023-08-31T12:58:51;9.03;;;3.53;;
12707;SDS011;6418;50.824;4.718;2023-08-31T13:01:20;9.07;;;4.00;;
12707;SDS011;6418;50.824;4.718;2023-08-31T13:03:48;10.67;;;3.80;;
12707;SDS011;6418;50.824;4.718;2023-08-31T13:06:15;7.40;;;3.63;;
12707;SDS011;6418;50.824;4.718;2023-08-31T13:08:42;9.32;;;3.72;;
12707;SDS011;6418;50.824;4.718;2023-08-31T13:11:09;10.02;;;3.90;;
12707;SDS011;6418;50.824;4.718;2023-08-31T13:13:37;8.32;;;3.78;;
12707;SDS011;6418;50.824;4.718;2023-08-31T13:16:05;9.25;;;4.00;;
12707;SDS011;6418;50.824;4.718;2023-08-31T13:18:33;7.57;;;3.60;;
12707;SDS011;6418;50.824;4.718;2023-08-31T13:21:00;8.45;;;3.70;;
12707;SDS011;6418;50.824;4.718;2023-08-31T13:23:28;9.43;;;3.80;;
12707;SDS011;6418;50.824;4.718;2023-08-31T13:25:55;10.82;;;3.97;;
12707;SDS011;6418;50.824;4.718;2023-08-31T13:28:22;12.10;;;4.00;;
12707;SDS011;6418;50.824;4.718;2023-08-31T13:30:49;8.63;;;3.78;;
12707;SDS011;6418;50.824;4.718;2023-08-31T13:33:16;8.32;;;3.70;;
12707;SDS011;6418;50.824;4.718;2023-08-31T13:35:46;10.50;;;3.70;;
12707;SDS011;6418;50.824;4.718;2023-08-31T13:38:13;12.60;;;3.90;;
12707;SDS011;6418;50.824;4.718;2023-08-31T13:40:40;6.20;;;3.55;;
12707;SDS011;6418;50.824;4.718;2023-08-31T13:43:07;9.93;;;3.65;;
12707;SDS011;6418;50.824;4.718;2023-08-31T13:45:34;10.05;;;3.80;;
12707;SDS011;6418;50.824;4.718;2023-08-31T13:48:01;8.23;;;3.58;;
12707;SDS011;6418;50.824;4.718;2023-08-31T13:50:29;9.88;;;3.92;;
12707;SDS011;6418;50.824;4.718;2023-08-31T13:52:57;10.30;;;4.07;;
12707;SDS011;6418;50.824;4.718;2023-08-31T13:55:24;8.27;;;3.70;;
12707;SDS011;6418;50.824;4.718;2023-08-31T13:57:52;8.18;;;3.65;;
12707;SDS011;6418;50.824;4.718;2023-08-31T14:00:19;8.75;;;3.75;;
12707;SDS011;6418;50.824;4.718;2023-08-31T14:02:46;10.27;;;3.83;;
12707;SDS011;6418;50.824;4.718;2023-08-31T14:05:13;9.57;;;4.03;;
12707;SDS011;6418;50.824;4.718;2023-08-31T14:07:40;9.48;;;3.67;;
12707;SDS011;6418;50.824;4.718;2023-08-31T14:10:09;9.63;;;4.25;;
12707;SDS011;6418;50.824;4.718;2023-08-31T14:12:36;10.48;;;4.20;;
12707;SDS011;6418;50.824;4.718;2023-08-31T14:15:04;8.98;;;4.25;;
12707;SDS011;6418;50.824;4.718;2023-08-31T14:17:31;12.90;;;4.05;;
12707;SDS011;6418;50.824;4.718;2023-08-31T14:19:59;12.20;;;4.13;;
12707;SDS011;6418;50.824;4.718;2023-08-31T14:22:30;10.43;;;4.13;;
12707;SDS011;6418;50.824;4.718;2023-08-31T14:24:58;12.50;;;4.03;;
12707;SDS011;6418;50.824;4.718;2023-08-31T14:27:27;11.60;;;4.15;;
12707;SDS011;6418;50.824;4.718;2023-08-31T14:29:55;13.48;;;4.30;;
12707;SDS011;6418;50.824;4.718;2023-08-31T14:32:22;10.68;;;4.47;;
12707;SDS011;6418;50.824;4.718;2023-08-31T14:34:49;12.48;;;4.70;;
12707;SDS011;6418;50.824;4.718;2023-08-31T14:37:16;13.27;;;4.55;;
12707;SDS011;6418;50.824;4.718;2023-08-31T14:39:43;11.50;;;4.72;;
12707;SDS011;6418;50.824;4.718;2023-08-31T14:42:10;12.77;;;4.63;;
12707;SDS011;6418;50.824;4.718;2023-08-31T14:44:38;11.68;;;4.40;;
12707;SDS011;6418;50.824;4.718;2023-08-31T14:47:05;17.85;;;4.80;;
12707;SDS011;6418;50.824;4.718;2023-08-31T14:49:32;12.25;;;4.82;;
12707;SDS011;6418;50.824;4.718;2023-08-31T14:51:59;13.77;;;4.63;;
12707;SDS011;6418;50.824;4.718;2023-08-31T14:54:30;12.15;;;4.90;;
12707;SDS011;6418;50.824;4.718;2023-08-31T14:56:57;12.63;;;4.60;;
12707;SDS011;6418;50.824;4.718;2023-08-31T14:59:24;11.25;;;4.43;;
12707;SDS011;6418;50.824;4.718;2023-08-31T15:01:53;13.30;;;4.65;;
12707;SDS011;6418;50.824;4.718;2023-08-31T15:04:20;13.68;;;4.70;;